createdAt,value
2023-06-04T00:00:38.307Z,11.27
2023-06-04T00:03:05.842Z,11.27
2023-06-04T00:05:33.347Z,11.28
2023-06-04T00:08:01.101Z,11.24
2023-06-04T00:10:28.497Z,11.21
2023-06-04T00:12:55.947Z,11.16
2023-06-04T00:15:23.494Z,11.10
2023-06-04T00:17:50.877Z,11.06
2023-06-04T00:20:18.972Z,11.04
2023-06-04T00:22:46.423Z,11.11
2023-06-04T00:25:13.919Z,11.22
2023-06-04T00:27:41.401Z,11.27
2023-06-04T00:30:09.400Z,11.27
2023-06-04T00:32:38.044Z,11.25
2023-06-04T00:35:06.118Z,11.23
2023-06-04T00:37:33.974Z,11.22
2023-06-04T00:40:01.690Z,11.20
2023-06-04T00:42:29.123Z,11.18
2023-06-04T00:44:58.837Z,11.15
2023-06-04T00:47:26.391Z,11.11
2023-06-04T00:49:57.157Z,11.15
2023-06-04T00:52:24.584Z,11.21
2023-06-04T00:54:52.664Z,11.23
2023-06-04T00:57:20.115Z,11.19
2023-06-04T00:59:47.721Z,11.14
2023-06-04T01:02:21.312Z,11.07
2023-06-04T01:05:37.898Z,11.00
2023-06-04T01:08:05.600Z,10.91
2023-06-04T01:10:33.389Z,10.85
2023-06-04T01:13:00.892Z,10.82
2023-06-04T01:15:28.407Z,10.79
2023-06-04T01:18:04.055Z,10.76
2023-06-04T01:20:39.558Z,10.79
2023-06-04T01:23:36.443Z,10.86
2023-06-04T01:26:06.996Z,10.87
2023-06-04T01:28:35.872Z,10.83
2023-06-04T01:31:04.300Z,10.81
2023-06-04T01:33:32.204Z,10.76
2023-06-04T01:35:59.705Z,10.71
2023-06-04T01:38:27.339Z,10.65
2023-06-04T01:41:02.637Z,10.60
2023-06-04T01:43:30.677Z,10.53
2023-06-04T01:45:58.596Z,10.47
2023-06-04T01:48:26.149Z,10.43
2023-06-04T01:50:53.626Z,10.45
2023-06-04T01:53:21.401Z,10.48
2023-06-04T01:55:50.398Z,10.49
2023-06-04T01:58:27.902Z,10.49
2023-06-04T02:00:56.312Z,10.47
2023-06-04T02:03:24.188Z,10.43
2023-06-04T02:05:51.805Z,10.39
2023-06-04T02:08:20.292Z,10.37
2023-06-04T02:10:48.904Z,10.33
2023-06-04T02:13:16.657Z,10.28
2023-06-04T02:15:44.202Z,10.23
2023-06-04T02:18:18.124Z,10.27
2023-06-04T02:20:46.240Z,10.34
2023-06-04T02:23:13.824Z,10.38
2023-06-04T02:25:41.271Z,10.36
2023-06-04T02:28:09.266Z,10.31
2023-06-04T02:30:37.097Z,10.30
2023-06-04T02:33:05.080Z,10.30
2023-06-04T02:35:32.828Z,10.29
2023-06-04T02:38:00.848Z,10.28
2023-06-04T02:40:30.810Z,10.25
2023-06-04T02:42:58.260Z,10.31
2023-06-04T02:45:26.355Z,10.41
2023-06-04T02:47:53.920Z,10.48
2023-06-04T02:50:21.529Z,10.52
2023-06-04T02:52:48.932Z,10.57
2023-06-04T02:55:16.954Z,10.60
2023-06-04T02:57:44.653Z,10.61
2023-06-04T03:00:13.821Z,10.60
2023-06-04T03:02:48.029Z,10.63
2023-06-04T03:05:16.851Z,10.71
2023-06-04T03:07:46.257Z,10.79
2023-06-04T03:10:14.475Z,10.85
2023-06-04T03:12:42.030Z,10.87
2023-06-04T03:15:10.180Z,10.89
2023-06-04T03:17:38.391Z,10.92
2023-06-04T03:20:08.263Z,10.96
2023-06-04T03:22:36.821Z,11.03
2023-06-04T03:25:05.491Z,11.08
2023-06-04T03:27:33.513Z,11.13
2023-06-04T03:30:01.096Z,11.24
2023-06-04T03:32:32.568Z,11.39
2023-06-04T03:35:01.384Z,11.48
2023-06-04T03:37:29.106Z,11.54
2023-06-04T03:39:56.764Z,11.58
2023-06-04T03:42:24.160Z,11.59
2023-06-04T03:44:51.907Z,11.58
2023-06-04T03:47:20.936Z,11.60
2023-06-04T03:49:48.485Z,11.62
2023-06-04T03:52:16.221Z,11.62
2023-06-04T03:54:43.696Z,11.61
2023-06-04T03:57:11.268Z,11.59
2023-06-04T03:59:38.674Z,11.57
2023-06-04T04:02:07.120Z,11.51
2023-06-04T04:04:34.947Z,11.45
2023-06-04T04:07:03.248Z,11.43
2023-06-04T04:09:31.030Z,11.47
2023-06-04T04:11:58.553Z,11.57
2023-06-04T04:14:26.392Z,11.64
2023-06-04T04:16:53.896Z,11.68
2023-06-04T04:19:21.894Z,11.73
2023-06-04T04:21:49.645Z,11.76
2023-06-04T04:24:25.129Z,11.74
2023-06-04T04:26:55.786Z,11.64
2023-06-04T04:29:23.812Z,11.57
2023-06-04T04:31:51.978Z,11.52
2023-06-04T04:34:22.849Z,11.46
2023-06-04T04:36:53.975Z,11.45
2023-06-04T04:39:25.818Z,11.49
2023-06-04T04:41:55.600Z,11.50
2023-06-04T04:44:23.226Z,11.45
2023-06-04T04:46:51.254Z,11.33
2023-06-04T04:49:18.996Z,11.20
2023-06-04T04:51:46.393Z,11.18
2023-06-04T04:54:14.145Z,11.14
2023-06-04T04:56:42.577Z,11.14
2023-06-04T05:01:38.461Z,11.27
2023-06-04T05:04:08.777Z,11.33
2023-06-04T05:06:38.759Z,11.41
2023-06-04T05:09:06.890Z,11.46
2023-06-04T05:11:34.354Z,11.53
2023-06-04T05:14:03.851Z,11.61
2023-06-04T05:16:31.966Z,11.68
2023-06-04T05:18:59.896Z,11.70
2023-06-04T05:21:30.251Z,11.73
2023-06-04T05:24:01.879Z,11.77
2023-06-04T05:26:34.339Z,11.83
2023-06-04T05:29:06.844Z,11.91
2023-06-04T05:31:38.125Z,11.97
2023-06-04T05:34:06.452Z,12.01
2023-06-04T05:36:35.550Z,12.05
2023-06-04T05:39:05.438Z,12.09
2023-06-04T05:41:38.571Z,12.10
2023-06-04T05:44:06.604Z,12.12
2023-06-04T05:46:34.162Z,12.14
2023-06-04T05:49:02.487Z,12.14
2023-06-04T05:51:30.381Z,12.12
2023-06-04T05:53:58.017Z,12.08
2023-06-04T05:56:26.868Z,12.14
2023-06-04T05:58:54.966Z,12.26
2023-06-04T06:01:24.631Z,12.36
2023-06-04T06:03:52.747Z,12.44
2023-06-04T06:06:22.158Z,12.47
2023-06-04T06:08:50.806Z,12.47
2023-06-04T06:11:19.006Z,12.47
2023-06-04T06:13:46.749Z,12.48
2023-06-04T06:16:15.022Z,12.49
2023-06-04T06:18:42.470Z,12.52
2023-06-04T06:21:09.878Z,12.56
2023-06-04T06:23:37.844Z,12.63
2023-06-04T06:26:09.371Z,12.75
2023-06-04T06:28:43.538Z,12.89
2023-06-04T06:31:11.897Z,13.00
2023-06-04T06:33:42.732Z,13.05
2023-06-04T06:36:20.214Z,13.06
2023-06-04T06:38:47.715Z,13.06
2023-06-04T06:41:15.186Z,13.09
2023-06-04T06:43:42.631Z,13.11
2023-06-04T06:46:15.011Z,13.13
2023-06-04T06:48:46.311Z,13.13
2023-06-04T06:51:14.083Z,13.12
2023-06-04T06:53:44.646Z,13.11
2023-06-04T06:56:12.077Z,13.11
2023-06-04T06:58:39.478Z,13.13
2023-06-04T07:01:07.626Z,13.14
2023-06-04T07:03:35.345Z,13.25
2023-06-04T07:06:03.451Z,13.41
2023-06-04T07:08:30.941Z,13.50
2023-06-04T07:10:58.862Z,13.59
2023-06-04T07:13:26.498Z,13.68
2023-06-04T07:15:54.366Z,13.77
2023-06-04T07:18:21.759Z,13.88
2023-06-04T07:20:49.171Z,13.96
2023-06-04T07:23:16.664Z,14.04
2023-06-04T07:25:44.121Z,14.15
2023-06-04T07:28:11.551Z,14.29
2023-06-04T07:30:39.434Z,14.43
2023-06-04T07:33:07.602Z,14.56
2023-06-04T07:35:35.144Z,14.66
2023-06-04T07:38:02.735Z,14.76
2023-06-04T07:40:30.233Z,14.85
2023-06-04T07:42:57.638Z,14.95
2023-06-04T07:45:26.315Z,15.05
2023-06-04T07:47:54.588Z,15.11
2023-06-04T07:50:21.962Z,15.15
2023-06-04T07:52:49.431Z,15.20
2023-06-04T07:55:16.865Z,15.25
2023-06-04T07:57:44.860Z,15.32
2023-06-04T08:00:19.097Z,15.40
2023-06-04T08:02:46.851Z,15.50
2023-06-04T08:05:15.028Z,15.57
2023-06-04T08:07:42.848Z,15.64
2023-06-04T08:10:10.991Z,15.71
2023-06-04T08:12:38.498Z,15.79
2023-06-04T08:15:06.808Z,15.87
2023-06-04T08:17:34.272Z,15.93
2023-06-04T08:20:02.145Z,15.98
2023-06-04T08:22:30.428Z,16.03
2023-06-04T08:24:57.853Z,16.08
2023-06-04T08:27:25.407Z,16.14
2023-06-04T08:29:53.415Z,16.17
2023-06-04T08:32:20.848Z,16.19
2023-06-04T08:34:48.374Z,16.23
2023-06-04T08:37:16.478Z,16.30
2023-06-04T08:39:43.962Z,16.39
2023-06-04T08:42:17.200Z,16.48
2023-06-04T08:44:44.848Z,16.60
2023-06-04T08:47:12.279Z,16.73
2023-06-04T08:49:39.736Z,16.88
2023-06-04T08:52:07.445Z,17.01
2023-06-04T08:54:35.185Z,17.16
2023-06-04T08:57:03.648Z,17.31
2023-06-04T08:59:31.206Z,17.45
2023-06-04T09:01:58.697Z,17.58
2023-06-04T09:04:26.144Z,17.67
2023-06-04T09:06:53.880Z,17.73
2023-06-04T09:09:23.573Z,17.77
2023-06-04T09:11:58.186Z,17.83
2023-06-04T09:14:25.937Z,17.89
2023-06-04T09:16:55.443Z,18.01
2023-06-04T09:19:23.252Z,18.11
2023-06-04T09:21:58.478Z,18.21
2023-06-04T09:24:27.224Z,18.27
2023-06-04T09:26:54.851Z,18.33
2023-06-04T09:29:22.303Z,18.42
2023-06-04T09:31:58.795Z,18.51
2023-06-04T09:34:32.732Z,18.62
2023-06-04T09:37:00.724Z,18.75
2023-06-04T09:39:28.347Z,18.90
2023-06-04T09:42:01.777Z,19.03
2023-06-04T09:44:32.794Z,19.11
2023-06-04T09:47:00.320Z,19.17
2023-06-04T09:49:28.021Z,19.29
2023-06-04T09:51:57.644Z,19.46
2023-06-04T09:54:25.021Z,19.62
2023-06-04T09:56:52.539Z,19.77
2023-06-04T09:59:19.945Z,19.95
2023-06-04T10:01:47.524Z,20.11
2023-06-04T10:04:15.040Z,20.24
2023-06-04T10:06:42.669Z,20.37
2023-06-04T10:09:10.706Z,20.43
2023-06-04T10:11:42.738Z,20.52
2023-06-04T10:14:19.162Z,20.62
2023-06-04T10:16:46.678Z,20.74
2023-06-04T10:19:14.104Z,20.81
2023-06-04T10:21:41.553Z,20.88
2023-06-04T10:24:09.220Z,20.95
2023-06-04T10:26:36.797Z,21.03
2023-06-04T10:29:04.377Z,21.13
2023-06-04T10:31:31.865Z,21.20
2023-06-04T10:33:59.471Z,21.27
2023-06-04T10:36:27.179Z,21.38
2023-06-04T10:38:56.407Z,21.49
2023-06-04T10:41:24.741Z,21.56
2023-06-04T10:43:53.557Z,21.59
2023-06-04T10:48:53.579Z,21.60
2023-06-04T10:51:34.442Z,21.63
2023-06-04T10:54:03.534Z,21.69
2023-06-04T10:56:33.376Z,21.75
2023-06-04T10:59:01.185Z,21.81
2023-06-04T11:01:30.054Z,21.85
2023-06-04T11:03:57.740Z,21.87
2023-06-04T11:06:29.180Z,21.91
2023-06-04T11:09:06.947Z,21.96
2023-06-04T11:11:34.532Z,22.02
2023-06-04T11:14:10.130Z,22.07
2023-06-04T11:16:37.667Z,22.15
2023-06-04T11:19:05.188Z,22.23
2023-06-04T11:21:35.561Z,22.30
2023-06-04T11:24:03.229Z,22.32
2023-06-04T11:26:40.410Z,22.30
2023-06-04T11:29:16.179Z,22.30
2023-06-04T11:31:44.239Z,22.34
2023-06-04T11:34:14.938Z,22.33
2023-06-04T11:36:42.421Z,22.23
2023-06-04T11:39:10.040Z,22.21
2023-06-04T11:41:37.519Z,22.26
2023-06-04T11:44:08.235Z,22.31
2023-06-04T11:46:41.196Z,22.31
2023-06-04T11:49:08.798Z,22.32
2023-06-04T11:51:37.290Z,22.33
2023-06-04T11:54:04.917Z,22.35
2023-06-04T11:56:32.361Z,22.36
2023-06-04T11:59:00.205Z,22.39
2023-06-04T12:01:30.115Z,22.43
2023-06-04T12:03:57.740Z,22.49
2023-06-04T12:06:25.271Z,22.55
2023-06-04T12:08:54.047Z,22.59
2023-06-04T12:11:30.006Z,22.59
2023-06-04T12:13:58.278Z,22.62
2023-06-04T12:16:26.208Z,22.66
2023-06-04T12:18:54.012Z,22.63
2023-06-04T12:21:28.619Z,22.55
2023-06-04T12:24:14.441Z,22.54
2023-06-04T12:26:42.954Z,22.61
2023-06-04T12:29:18.860Z,22.63
2023-06-04T12:31:47.358Z,22.67
2023-06-04T12:34:14.999Z,22.73
2023-06-04T12:36:44.157Z,22.75
2023-06-04T12:39:11.612Z,22.73
2023-06-04T12:41:39.132Z,22.74
2023-06-04T12:44:06.697Z,22.79
2023-06-04T12:46:34.244Z,22.86
2023-06-04T12:49:01.746Z,22.88
2023-06-04T12:51:29.225Z,22.85
2023-06-04T12:53:56.762Z,22.84
2023-06-04T13:02:54.044Z,22.96
2023-06-04T13:05:20.788Z,22.92
2023-06-04T13:07:48.445Z,22.91
2023-06-04T13:10:15.805Z,22.89
2023-06-04T13:12:42.843Z,22.90
2023-06-04T13:15:10.703Z,22.94
2023-06-04T13:17:37.642Z,22.97
2023-06-04T13:20:06.078Z,22.98
2023-06-04T13:22:33.414Z,22.99
2023-06-04T13:25:00.468Z,23.00
2023-06-04T13:33:57.035Z,23.11
2023-06-04T13:36:24.650Z,23.11
2023-06-04T13:38:53.885Z,23.13
2023-06-04T13:41:22.484Z,23.14
2023-06-04T13:43:50.546Z,23.16
2023-06-04T13:46:18.211Z,23.13
2023-06-04T13:48:45.804Z,23.06
2023-06-04T13:51:13.402Z,22.97
2023-06-04T13:53:40.979Z,22.89
2023-06-04T13:56:08.486Z,22.76
2023-06-04T13:58:36.026Z,22.68
2023-06-04T14:01:03.585Z,22.68
2023-06-04T14:03:31.200Z,22.70
2023-06-04T14:05:58.773Z,22.71
2023-06-04T14:08:26.268Z,22.74
2023-06-04T14:10:56.257Z,22.77
2023-06-04T14:13:23.825Z,22.78
2023-06-04T14:15:52.169Z,22.78
2023-06-04T14:18:19.796Z,22.81
2023-06-04T14:20:48.345Z,22.86
2023-06-04T14:23:17.776Z,22.88
2023-06-04T14:25:45.319Z,22.89
2023-06-04T14:28:12.904Z,22.90
2023-06-04T14:30:40.356Z,22.90
2023-06-04T14:33:07.869Z,22.86
2023-06-04T14:35:35.325Z,22.75
2023-06-04T14:38:03.284Z,22.62
2023-06-04T14:40:30.759Z,22.50
2023-06-04T14:42:58.830Z,22.38
2023-06-04T14:45:26.425Z,22.33
2023-06-04T14:48:06.439Z,22.29
2023-06-04T14:50:41.299Z,22.23
2023-06-04T14:53:09.331Z,22.17
2023-06-04T14:55:37.136Z,22.15
2023-06-04T14:58:05.113Z,22.15
2023-06-04T15:00:33.391Z,22.15
2023-06-04T15:03:04.410Z,22.15
2023-06-04T15:05:35.298Z,22.15
2023-06-04T15:08:03.152Z,22.15
2023-06-04T15:10:31.044Z,22.16
2023-06-04T15:12:58.581Z,22.19
2023-06-04T15:15:26.614Z,22.23
2023-06-04T15:17:54.338Z,22.25
2023-06-04T15:20:26.263Z,22.23
2023-06-04T15:22:54.291Z,22.18
2023-06-04T15:25:22.006Z,22.14
2023-06-04T15:27:49.663Z,22.08
2023-06-04T15:30:18.606Z,22.03
2023-06-04T15:32:46.472Z,21.97
2023-06-04T15:35:14.009Z,21.90
2023-06-04T15:37:41.544Z,21.82
2023-06-04T15:40:10.582Z,21.74
2023-06-04T15:42:38.091Z,21.68
2023-06-04T15:45:05.920Z,21.65
2023-06-04T15:47:33.375Z,21.63
2023-06-04T15:50:03.189Z,21.62
2023-06-04T15:52:30.847Z,21.61
2023-06-04T15:54:58.337Z,21.60
2023-06-04T15:57:26.480Z,21.58
2023-06-04T15:59:53.970Z,21.56
2023-06-04T16:02:21.423Z,21.52
2023-06-04T16:04:49.104Z,21.48
2023-06-04T16:07:16.668Z,21.43
2023-06-04T16:09:44.240Z,21.40
2023-06-04T16:12:11.843Z,21.36
2023-06-04T16:14:39.215Z,21.33
2023-06-04T16:17:06.797Z,21.32
2023-06-04T16:19:34.270Z,21.31
2023-06-04T16:22:01.763Z,21.29
2023-06-04T16:24:29.254Z,21.26
2023-06-04T16:26:56.809Z,21.23
2023-06-04T16:29:24.284Z,21.20
2023-06-04T16:31:52.097Z,21.17
2023-06-04T16:34:19.654Z,21.14
2023-06-04T16:36:47.286Z,21.09
2023-06-04T16:39:14.769Z,21.06
2023-06-04T16:41:42.210Z,21.03
2023-06-04T16:44:09.674Z,21.01
2023-06-04T16:46:42.151Z,20.97
2023-06-04T16:49:09.656Z,20.92
2023-06-04T16:51:38.557Z,20.87
2023-06-04T16:54:06.100Z,20.83
2023-06-04T16:56:33.568Z,20.79
2023-06-04T16:59:01.122Z,20.73
2023-06-04T17:01:28.763Z,20.68
2023-06-04T17:03:56.373Z,20.62
2023-06-04T17:06:23.927Z,20.57
2023-06-04T17:08:51.490Z,20.51
2023-06-04T17:11:19.547Z,20.45
2023-06-04T17:13:47.009Z,20.40
2023-06-04T17:16:14.796Z,20.36
2023-06-04T17:18:42.209Z,20.33
2023-06-04T17:21:11.054Z,20.30
2023-06-04T17:23:39.498Z,20.28
2023-06-04T17:26:07.833Z,20.26
2023-06-04T17:28:35.620Z,20.23
2023-06-04T17:31:04.074Z,20.21
2023-06-04T17:33:34.554Z,20.16
2023-06-04T17:36:02.547Z,20.12
2023-06-04T17:38:31.238Z,20.09
2023-06-04T17:40:58.689Z,20.06
2023-06-04T17:43:26.154Z,20.02
2023-06-04T17:45:54.933Z,19.97
2023-06-04T17:48:23.527Z,19.92
2023-06-04T17:50:50.991Z,19.88
2023-06-04T17:53:18.469Z,19.85
2023-06-04T17:55:46.136Z,19.81
2023-06-04T17:58:13.587Z,19.77
2023-06-04T18:00:44.487Z,19.73
2023-06-04T18:03:12.758Z,19.69
2023-06-04T18:05:41.065Z,19.66
2023-06-04T18:08:10.582Z,19.62
2023-06-04T18:10:39.808Z,19.58
2023-06-04T18:13:07.444Z,19.54
2023-06-04T18:15:35.004Z,19.50
2023-06-04T18:18:02.498Z,19.46
2023-06-04T18:20:30.267Z,19.42
2023-06-04T18:22:58.236Z,19.37
2023-06-04T18:25:26.467Z,19.30
2023-06-04T18:27:54.117Z,19.23
2023-06-04T18:30:21.608Z,19.16
2023-06-04T18:32:49.786Z,19.08
2023-06-04T18:35:17.325Z,19.01
2023-06-04T18:37:44.804Z,18.95
2023-06-04T18:40:13.522Z,18.90
2023-06-04T18:42:41.387Z,18.85
2023-06-04T18:45:10.592Z,18.81
2023-06-04T18:47:38.483Z,18.76
2023-06-04T18:50:06.977Z,18.71
2023-06-04T18:52:34.764Z,18.66
2023-06-04T18:55:02.267Z,18.61
2023-06-04T18:57:29.743Z,18.56
2023-06-04T18:59:57.348Z,18.52
2023-06-04T19:02:24.746Z,18.46
2023-06-04T19:04:52.328Z,18.42
2023-06-04T19:07:22.558Z,18.36
2023-06-04T19:09:50.116Z,18.30
2023-06-04T19:12:17.888Z,18.26
2023-06-04T19:14:45.438Z,18.21
2023-06-04T19:17:19.939Z,18.16
2023-06-04T19:19:48.601Z,18.11
2023-06-04T19:22:16.384Z,18.05
2023-06-04T19:24:43.930Z,17.97
2023-06-04T19:27:11.421Z,17.88
2023-06-04T19:29:43.741Z,17.80
2023-06-04T19:32:11.671Z,17.71
2023-06-04T19:34:39.195Z,17.62
2023-06-04T19:37:06.710Z,17.53
2023-06-04T19:39:34.262Z,17.45
2023-06-04T19:42:01.778Z,17.39
2023-06-04T19:44:29.264Z,17.33
2023-06-04T19:46:57.257Z,17.26
2023-06-04T19:49:24.752Z,17.18
2023-06-04T19:51:52.431Z,17.11
2023-06-04T19:54:19.861Z,17.03
2023-06-04T19:56:47.340Z,16.96
2023-06-04T19:59:16.296Z,16.90
2023-06-04T20:01:44.194Z,16.83
2023-06-04T20:04:12.581Z,16.76
2023-06-04T20:06:40.311Z,16.69
2023-06-04T20:09:11.022Z,16.62
2023-06-04T20:11:38.619Z,16.57
2023-06-04T20:14:06.874Z,16.51
2023-06-04T20:16:34.389Z,16.47
2023-06-04T20:19:01.824Z,16.45
2023-06-04T20:21:34.010Z,16.42
2023-06-04T20:24:03.377Z,16.40
2023-06-04T20:26:30.901Z,16.38
2023-06-04T20:28:58.394Z,16.36
2023-06-04T20:31:27.676Z,16.38
2023-06-04T20:33:58.363Z,16.44
2023-06-04T20:36:25.866Z,16.47
2023-06-04T20:38:53.490Z,16.47
2023-06-04T20:41:22.344Z,16.45
2023-06-04T20:43:54.830Z,16.41
2023-06-04T20:46:22.559Z,16.34
2023-06-04T20:48:50.247Z,16.26
2023-06-04T20:51:17.716Z,16.19
2023-06-04T20:53:48.527Z,16.12
2023-06-04T20:56:16.396Z,16.06
2023-06-04T20:58:43.846Z,15.99
2023-06-04T21:01:12.685Z,15.95
2023-06-04T21:03:40.334Z,15.90
2023-06-04T21:06:08.081Z,15.85
2023-06-04T21:08:35.622Z,15.89
2023-06-04T21:11:03.119Z,15.93
2023-06-04T21:13:36.452Z,15.93
2023-06-04T21:16:03.975Z,15.88
2023-06-04T21:18:31.448Z,15.83
2023-06-04T21:20:58.910Z,15.78
2023-06-04T21:23:26.962Z,15.74
2023-06-04T21:25:54.376Z,15.67
2023-06-04T21:28:21.822Z,15.58
2023-06-04T21:30:49.302Z,15.51
2023-06-04T21:33:16.705Z,15.44
2023-06-04T21:35:44.058Z,15.38
2023-06-04T21:38:11.534Z,15.34
2023-06-04T21:40:38.962Z,15.36
2023-06-04T21:43:06.358Z,15.41
2023-06-04T21:45:34.330Z,15.43
2023-06-04T21:48:02.448Z,15.42
2023-06-04T21:50:29.900Z,15.38
2023-06-04T21:52:57.331Z,15.35
2023-06-04T21:55:25.229Z,15.34
2023-06-04T21:57:52.672Z,15.32
2023-06-04T22:00:20.324Z,15.27
2023-06-04T22:02:47.964Z,15.20
2023-06-04T22:05:15.503Z,15.15
2023-06-04T22:07:42.956Z,15.15
2023-06-04T22:10:10.662Z,15.18
2023-06-04T22:12:39.141Z,15.16
2023-06-04T22:15:07.666Z,15.10
2023-06-04T22:17:35.078Z,15.04
2023-06-04T22:20:02.961Z,14.95
2023-06-04T22:22:30.780Z,14.87
2023-06-04T22:24:58.526Z,14.82
2023-06-04T22:27:26.515Z,14.78
2023-06-04T22:29:53.931Z,14.70
2023-06-04T22:32:21.338Z,14.72
2023-06-04T22:34:49.139Z,14.78
2023-06-04T22:37:16.582Z,14.80
2023-06-04T22:39:43.975Z,14.79
2023-06-04T22:42:11.405Z,14.76
2023-06-04T22:44:39.105Z,14.72
2023-06-04T22:47:09.344Z,14.69
2023-06-04T22:49:36.938Z,14.63
2023-06-04T22:52:04.547Z,14.58
2023-06-04T22:54:32.033Z,14.53
2023-06-04T22:56:59.669Z,14.53
2023-06-04T22:59:27.610Z,14.56
2023-06-04T23:01:55.007Z,14.56
2023-06-04T23:06:04.975Z,14.54
2023-06-04T23:08:33.128Z,14.46
2023-06-04T23:11:00.607Z,14.39
2023-06-04T23:13:28.640Z,14.33
2023-06-04T23:15:58.266Z,14.26
2023-06-04T23:18:26.322Z,14.19
2023-06-04T23:20:53.920Z,14.17
2023-06-04T23:31:00.657Z,14.15
2023-06-04T23:33:28.196Z,14.10
2023-06-04T23:35:55.966Z,14.06
2023-06-04T23:38:23.409Z,14.01
2023-06-04T23:40:50.949Z,13.99
2023-06-04T23:43:18.441Z,14.01
2023-06-04T23:45:46.180Z,14.06
2023-06-04T23:48:13.802Z,14.06
2023-06-04T23:50:41.627Z,14.04
2023-06-04T23:53:09.108Z,13.99
2023-06-04T23:55:38.388Z,13.93
2023-06-04T23:58:06.654Z,13.88
